KOVE/OVE METAR and TAF weather

Enter ICAO airport designator
Station Type Date Time Source
KOVE METAR 2024/07/10 20:53 UTC NOAA

KOVE 102053Z AUTO 23003KT 10SM CLR 38/16 A2984 RMK AO2 SLP104 T03780156 58010


Station Type Date Time Source
KOVE Decoded METAR 2024/07/10 20:53 UTC NOAA

OROVILLE MUNICIPAL AIRPORT, CA, United States (KOVE) 39-30N 121-37W 58M
Jul 10, 2024 - 04:53 PM EDT / 2024.07.10 2053 UTC
Wind: from the SW (230 degrees) at 3 MPH (3 KT):0
Visibility: 10 mile(s):0
Sky conditions: clear
Temperature: 100.0 F (37.8 C)
Heat index: 100.6 F (38.1 C):1
Dew Point: 60.1 F (15.6 C)
Relative Humidity: 27%
Pressure (altimeter): 29.84 in. Hg (1010 hPa)
Pressure tendency: 0.03 inches (1.0 hPa) lower than three hours ago
ob: KOVE 102053Z AUTO 23003KT 10SM CLR 38/16 A2984 RMK AO2 SLP104 T03780156 58010
cycle: 21

Station Type Date Time Source
KOVE TAF UTC NOAA

Error!

Example: see airport list